aviador You're here:

WBKS Decoded Metar

SANDAKAN/KALIMAN in _UNIDENTIFIED
Report Time2017-07-26 06:00:00
UTC Time2017-07-26 06:40:16
Flight Rules vfr VFR
Wind170° at 04 kt
W.Decomp.*RWY 08: 4.0 kt RCW
W.Rank170° ranks 21
Current wind is above 170° avg. (3.6)
Visibility9999 m
Phenomena:N/A
Clouds:Few 015 Hf
Broken 270 Hf
Expected CloudBase > 2,800 ft AGL from Temp-Dew spread
Ceiling27,000 ft
Temp33°C (ISA +18)
Dew Point26°C (67% RH)
Heat Index42.2°C
QNH1006 hPa
Density Alt2,779 ft
Elevation43 ft
Report Wrong Elevation
Raw Report
METAR COR WBKS 260600Z 17004KT 9999 FEW015 BKN270 33/26 Q1006=

Extra information for WBKS:More info

Metar Taf Metar & Taf Last 4 Metars F.Rules Stats Wind Profile Meteogram Temp Stats Airport Information Weather charts Add Link Nearby VenuesMetar ALERT Operation Metar Decoded Social comments